createdAt,value
2023-05-10T06:42:06.787Z,6.25
2023-05-10T06:44:34.620Z,3.03
2023-05-10T06:47:02.216Z,5.13
2023-05-10T06:49:29.828Z,3.83
2023-05-10T06:51:57.719Z,3.70
2023-05-10T06:54:25.481Z,7.30
2023-05-10T06:56:53.152Z,3.92
2023-05-10T06:59:22.663Z,8.13
2023-05-10T07:01:50.535Z,11.27
2023-05-10T07:04:18.854Z,5.75
2023-05-10T07:06:47.492Z,5.82
2023-05-10T07:09:15.088Z,8.23
2023-05-10T07:11:42.862Z,5.28
2023-05-10T07:14:10.673Z,4.32
2023-05-10T07:16:38.563Z,3.20
2023-05-10T07:19:06.484Z,5.55
2023-05-10T07:21:34.042Z,4.38
2023-05-10T07:24:02.156Z,4.22
2023-05-10T07:26:30.144Z,4.32
2023-05-10T07:28:57.657Z,5.63
2023-05-10T07:31:25.354Z,3.72
2023-05-10T07:33:52.960Z,3.78
2023-05-10T07:36:20.837Z,5.90
2023-05-10T07:38:48.484Z,5.10
2023-05-10T07:41:16.295Z,4.78
2023-05-10T07:43:43.938Z,5.53
2023-05-10T07:46:12.148Z,4.25
2023-05-10T07:48:39.761Z,5.13
2023-05-10T07:51:10.270Z,3.85
2023-05-10T07:53:39.234Z,3.20
2023-05-10T07:56:31.225Z,2.53
2023-05-10T07:58:59.860Z,4.22
2023-05-10T08:01:31.163Z,4.15
2023-05-10T08:03:58.874Z,2.45
2023-05-10T08:06:28.216Z,2.13
2023-05-10T08:08:55.833Z,1.85
2023-05-10T08:11:23.914Z,3.78
2023-05-10T08:13:52.388Z,3.95
2023-05-10T08:16:20.101Z,2.90
2023-05-10T08:18:48.585Z,3.83
2023-05-10T08:21:16.766Z,2.90
2023-05-10T08:23:47.739Z,1.80
2023-05-10T08:26:15.450Z,3.60
2023-05-10T08:28:43.111Z,1.75
2023-05-10T08:31:10.770Z,2.58
2023-05-10T08:33:38.363Z,2.55
2023-05-10T08:36:06.302Z,2.03
2023-05-10T08:38:33.820Z,3.15
2023-05-10T08:41:03.645Z,1.60
2023-05-10T08:43:31.415Z,1.40
2023-05-10T08:46:04.256Z,8.90
2023-05-10T08:48:35.428Z,2.55
2023-05-10T08:51:04.877Z,3.72
2023-05-10T08:53:36.453Z,3.15
2023-05-10T08:56:05.010Z,2.08
2023-05-10T08:58:33.059Z,5.85
2023-05-10T09:01:02.050Z,3.53
2023-05-10T09:03:31.204Z,1.98
2023-05-10T09:05:59.610Z,2.75
2023-05-10T09:08:28.042Z,3.00
2023-05-10T09:10:56.370Z,3.88
2023-05-10T09:13:25.425Z,3.65
2023-05-10T09:15:54.298Z,9.95
2023-05-10T09:18:22.143Z,6.60
2023-05-10T09:20:50.181Z,3.63
2023-05-10T09:23:18.728Z,3.75
2023-05-10T09:25:46.852Z,2.97
2023-05-10T09:28:14.550Z,5.53
2023-05-10T09:30:44.023Z,3.00
2023-05-10T09:33:11.636Z,3.38
2023-05-10T09:35:41.239Z,6.20
2023-05-10T09:38:09.103Z,3.45
2023-05-10T09:40:36.719Z,11.38
2023-05-10T09:43:14.699Z,2.30
2023-05-10T09:45:42.546Z,5.43
2023-05-10T09:48:10.076Z,4.72
2023-05-10T09:50:37.765Z,2.50
2023-05-10T09:53:05.407Z,3.25
2023-05-10T09:55:40.471Z,6.20
2023-05-10T09:58:11.361Z,8.55
2023-05-10T10:00:44.160Z,2.60
2023-05-10T10:03:16.795Z,4.85
2023-05-10T10:05:45.701Z,3.85
2023-05-10T10:08:14.087Z,2.92
2023-05-10T10:10:42.468Z,6.70
2023-05-10T10:13:10.237Z,5.10
2023-05-10T10:15:38.266Z,2.88
2023-05-10T10:18:06.657Z,5.00
2023-05-10T10:20:34.316Z,5.47
2023-05-10T10:23:02.093Z,3.70
2023-05-10T10:25:30.001Z,3.25
2023-05-10T10:28:11.326Z,6.82
2023-05-10T10:30:47.013Z,3.38
2023-05-10T10:33:42.190Z,4.63
2023-05-10T10:36:09.991Z,3.33
2023-05-10T10:38:49.690Z,2.67
2023-05-10T10:41:35.539Z,2.20
2023-05-10T10:44:21.992Z,5.13
2023-05-10T10:47:07.193Z,3.08
2023-05-10T10:49:44.705Z,1.60
2023-05-10T10:52:15.430Z,3.42
2023-05-10T10:54:51.521Z,2.85
2023-05-10T10:57:22.716Z,4.93
2023-05-10T10:59:50.560Z,1.80
2023-05-10T11:02:50.002Z,7.30
2023-05-10T11:05:29.770Z,4.50
2023-05-10T11:07:59.492Z,2.42
2023-05-10T11:10:28.598Z,6.30
2023-05-10T11:13:09.599Z,2.90
2023-05-10T11:15:39.261Z,3.72
2023-05-10T11:18:21.240Z,3.78
2023-05-10T11:21:04.354Z,3.35
2023-05-10T11:23:33.979Z,3.63
2023-05-10T11:26:05.923Z,4.28
2023-05-10T11:28:33.622Z,3.35
2023-05-10T11:31:01.361Z,3.85
2023-05-10T11:33:29.298Z,3.55
2023-05-10T11:35:56.989Z,3.05
2023-05-10T11:38:24.443Z,2.75
2023-05-10T11:40:54.420Z,4.55
2023-05-10T11:43:24.989Z,2.97
2023-05-10T11:45:52.660Z,4.50
2023-05-10T11:48:23.541Z,4.65
2023-05-10T11:50:51.610Z,5.65
2023-05-10T11:53:21.602Z,3.67
2023-05-10T11:55:49.717Z,2.47
2023-05-10T11:58:19.135Z,6.78
2023-05-10T12:00:47.688Z,2.08
2023-05-10T12:03:15.491Z,2.97
2023-05-10T12:05:43.299Z,5.32
2023-05-10T12:08:21.398Z,2.15
2023-05-10T12:10:49.029Z,4.53
2023-05-10T12:13:16.815Z,3.38
2023-05-10T12:15:44.812Z,5.40
2023-05-10T12:18:16.386Z,2.67
2023-05-10T12:20:44.066Z,5.15
2023-05-10T12:23:14.359Z,5.30
2023-05-10T12:25:41.943Z,3.17
2023-05-10T12:28:10.729Z,3.10
2023-05-10T12:30:39.827Z,4.18
2023-05-10T12:33:13.095Z,3.25
2023-05-10T12:35:49.033Z,3.47
2023-05-10T12:38:49.130Z,3.60
2023-05-10T12:41:18.824Z,4.75
2023-05-10T12:43:47.561Z,6.55
2023-05-10T12:46:19.644Z,2.67
2023-05-10T12:48:53.229Z,3.67
2023-05-10T12:51:25.142Z,5.25
2023-05-10T12:53:52.898Z,5.93
2023-05-10T12:56:21.161Z,2.17
2023-05-10T12:58:49.332Z,1.63
2023-05-10T13:01:17.002Z,3.42
2023-05-10T13:03:44.926Z,3.67
2023-05-10T13:06:14.469Z,3.53
2023-05-10T13:08:42.046Z,4.75
2023-05-10T13:11:09.643Z,5.38
2023-05-10T13:13:37.156Z,7.63
2023-05-10T13:16:05.000Z,6.07
2023-05-10T13:18:32.573Z,8.82
2023-05-10T13:21:00.369Z,4.03
2023-05-10T13:23:27.913Z,5.32
2023-05-10T13:25:55.728Z,3.20
2023-05-10T13:28:23.248Z,5.15
2023-05-10T13:30:50.985Z,3.47
2023-05-10T13:33:18.542Z,7.30
2023-05-10T13:35:46.331Z,10.05
2023-05-10T13:38:14.913Z,6.80
2023-05-10T13:40:42.479Z,2.58
2023-05-10T13:43:10.131Z,5.53
2023-05-10T13:45:37.912Z,7.55
2023-05-10T13:48:05.703Z,2.85
2023-05-10T13:50:33.342Z,4.78
2023-05-10T13:53:01.320Z,6.22
2023-05-10T13:55:29.790Z,2.47
2023-05-10T13:57:57.495Z,2.63
2023-05-10T14:00:25.103Z,4.80
2023-05-10T14:02:52.823Z,2.50
2023-05-10T14:05:25.533Z,3.17
2023-05-10T14:07:54.797Z,4.18
2023-05-10T14:10:22.586Z,2.60
2023-05-10T14:12:51.059Z,5.18
2023-05-10T14:15:19.309Z,1.70
2023-05-10T14:17:47.214Z,4.10
2023-05-10T14:20:14.735Z,3.58
2023-05-10T14:22:42.493Z,5.03
2023-05-10T14:25:10.321Z,3.47
2023-05-10T14:27:38.154Z,4.13
2023-05-10T14:30:06.360Z,5.90
2023-05-10T14:32:35.052Z,4.47
2023-05-10T14:35:02.628Z,2.10
2023-05-10T14:37:32.168Z,5.32
2023-05-10T14:39:59.823Z,7.68
2023-05-10T14:42:27.283Z,3.75
2023-05-10T14:44:54.871Z,7.40
2023-05-10T14:47:22.375Z,7.47
2023-05-10T14:49:50.040Z,3.60
2023-05-10T14:52:17.947Z,3.53
2023-05-10T14:54:45.474Z,5.10
2023-05-10T14:57:13.128Z,4.25
2023-05-10T14:59:40.698Z,4.05
2023-05-10T15:02:09.414Z,5.28
2023-05-10T15:04:38.071Z,2.28
2023-05-10T15:07:06.835Z,5.00
2023-05-10T15:09:34.362Z,9.02
2023-05-10T15:12:02.046Z,5.05
2023-05-10T15:14:29.929Z,4.38
2023-05-10T15:16:57.454Z,3.88
2023-05-10T15:19:25.029Z,3.25
2023-05-10T15:21:52.590Z,5.07
2023-05-10T15:24:20.313Z,3.03
2023-05-10T15:26:48.201Z,3.67
2023-05-10T15:29:20.757Z,5.43
2023-05-10T15:31:49.675Z,8.77
2023-05-10T15:34:18.395Z,5.88
2023-05-10T15:36:46.425Z,2.05
2023-05-10T15:39:14.765Z,2.75
2023-05-10T15:41:42.749Z,2.47
2023-05-10T15:44:10.235Z,4.15
2023-05-10T15:46:38.990Z,4.13
2023-05-10T15:49:07.610Z,6.70
2023-05-10T15:51:36.629Z,2.60
2023-05-10T15:54:08.223Z,4.97
2023-05-10T15:56:36.551Z,3.75
2023-05-10T15:59:04.178Z,5.45
2023-05-10T16:01:32.855Z,5.38
2023-05-10T16:04:01.236Z,7.65
2023-05-10T16:06:28.945Z,4.13
2023-05-10T16:08:56.523Z,4.20
2023-05-10T16:11:24.410Z,5.30
2023-05-10T16:13:52.868Z,3.85
2023-05-10T16:16:20.506Z,4.45
2023-05-10T16:18:49.005Z,5.53
2023-05-10T16:21:16.932Z,3.05
2023-05-10T16:23:46.755Z,6.20
2023-05-10T16:26:14.417Z,6.82
2023-05-10T16:28:41.978Z,3.92
2023-05-10T16:31:09.663Z,5.15
2023-05-10T16:33:37.499Z,4.18
2023-05-10T16:36:06.207Z,4.85
2023-05-10T16:38:33.858Z,4.22
2023-05-10T16:41:04.563Z,11.10
2023-05-10T16:43:32.916Z,4.53
2023-05-10T16:46:00.918Z,12.05
2023-05-10T16:48:28.623Z,5.85
2023-05-10T16:50:56.274Z,10.13
2023-05-10T16:53:23.811Z,7.93
2023-05-10T16:55:51.605Z,11.07
2023-05-10T16:58:19.311Z,16.35
2023-05-10T17:00:47.112Z,8.57
2023-05-10T17:03:15.023Z,5.78
2023-05-10T17:05:43.310Z,6.00
2023-05-10T17:08:11.012Z,5.72
2023-05-10T17:10:41.649Z,6.85
2023-05-10T17:13:10.397Z,9.52
2023-05-10T17:15:39.672Z,6.68
2023-05-10T17:18:07.920Z,13.32
2023-05-10T17:20:35.995Z,5.88
2023-05-10T17:23:03.853Z,7.32
2023-05-10T17:25:31.568Z,5.95
2023-05-10T17:27:59.142Z,7.93
2023-05-10T17:30:28.831Z,9.23
2023-05-10T17:32:56.451Z,11.48
2023-05-10T17:35:24.222Z,18.70
2023-05-10T17:37:52.013Z,20.95
2023-05-10T17:40:19.857Z,39.85
2023-05-10T17:42:49.103Z,30.20
2023-05-10T17:45:17.653Z,35.78
2023-05-10T17:47:45.755Z,39.85
2023-05-10T17:50:13.401Z,37.35
2023-05-10T17:52:40.936Z,37.42
2023-05-10T17:55:09.136Z,31.83
2023-05-10T17:57:38.892Z,33.53
2023-05-10T18:00:08.882Z,31.40
2023-05-10T18:02:37.027Z,21.83
2023-05-10T18:05:05.602Z,21.80
2023-05-10T18:07:33.541Z,17.67
2023-05-10T18:10:01.272Z,17.27
2023-05-10T18:12:29.674Z,13.38
2023-05-10T18:14:57.800Z,13.10
2023-05-10T18:17:26.337Z,15.70
2023-05-10T18:19:53.988Z,17.70
2023-05-10T18:22:21.758Z,20.05
2023-05-10T18:24:49.323Z,11.90
2023-05-10T18:27:17.274Z,13.38
2023-05-10T18:29:45.228Z,17.17
2023-05-10T18:32:12.875Z,11.38
2023-05-10T18:34:40.729Z,3.70
2023-05-10T18:37:09.693Z,12.52
2023-05-10T18:39:37.763Z,7.72
2023-05-10T18:42:06.065Z,9.88
2023-05-10T18:44:34.004Z,10.98
2023-05-10T18:47:01.608Z,3.97
2023-05-10T18:49:29.501Z,7.13
2023-05-10T18:51:57.282Z,6.65
2023-05-10T18:54:25.307Z,9.40
2023-05-10T18:56:52.980Z,7.05
2023-05-10T18:59:20.670Z,8.10
2023-05-10T19:01:50.878Z,7.38
2023-05-10T19:04:19.037Z,3.95
2023-05-10T19:06:46.783Z,12.90
2023-05-10T19:09:14.464Z,7.43
2023-05-10T19:11:43.439Z,6.18
2023-05-10T19:14:11.233Z,9.02
2023-05-10T19:16:40.515Z,8.27
2023-05-10T19:19:09.061Z,4.78
2023-05-10T19:21:38.080Z,7.40
2023-05-10T19:24:06.602Z,8.63
2023-05-10T19:26:34.361Z,8.10
2023-05-10T19:29:02.193Z,4.07
2023-05-10T19:31:30.153Z,7.30
2023-05-10T19:34:00.628Z,7.85
2023-05-10T19:36:28.906Z,6.93
2023-05-10T19:38:56.928Z,16.40
2023-05-10T19:41:24.691Z,7.32
2023-05-10T19:43:52.357Z,6.85
2023-05-10T19:46:20.415Z,7.32
2023-05-10T19:48:50.118Z,21.65
2023-05-10T19:51:18.577Z,16.90
2023-05-10T19:53:47.074Z,7.65
2023-05-10T19:56:14.948Z,15.77
2023-05-10T19:58:42.775Z,11.75
2023-05-10T20:01:10.717Z,13.48
2023-05-10T20:03:38.694Z,12.65
2023-05-10T20:06:06.430Z,12.70
2023-05-10T20:08:34.087Z,15.35
2023-05-10T20:11:03.882Z,17.52
2023-05-10T20:13:31.924Z,10.15
2023-05-10T20:16:00.072Z,13.10
2023-05-10T20:18:27.910Z,14.32
2023-05-10T20:20:57.972Z,13.32
2023-05-10T20:23:26.044Z,12.70
2023-05-10T20:25:54.894Z,11.32
2023-05-10T20:28:24.060Z,13.55
2023-05-10T20:30:54.400Z,21.23
2023-05-10T20:33:22.950Z,18.50
2023-05-10T20:35:51.436Z,16.85
2023-05-10T20:38:19.445Z,23.50
2023-05-10T20:40:47.433Z,18.90
2023-05-10T20:43:15.170Z,28.23
2023-05-10T20:45:42.894Z,18.17
2023-05-10T20:48:10.499Z,21.30
2023-05-10T20:50:38.227Z,20.50
2023-05-10T20:53:06.188Z,19.48
2023-05-10T20:55:33.881Z,17.98
2023-05-10T20:58:04.140Z,23.40
2023-05-10T21:00:32.623Z,22.95
2023-05-10T21:03:00.242Z,21.17
2023-05-10T21:05:27.992Z,19.00
2023-05-10T21:07:55.679Z,20.15
2023-05-10T21:10:23.331Z,15.50
2023-05-10T21:12:51.070Z,13.20
2023-05-10T21:15:18.735Z,19.27
2023-05-10T21:17:46.344Z,17.15
2023-05-10T21:20:13.959Z,18.95
2023-05-10T21:22:41.607Z,16.73
2023-05-10T21:25:09.805Z,9.88
2023-05-10T21:27:37.560Z,14.00
2023-05-10T21:30:06.459Z,14.85
2023-05-10T21:32:34.349Z,18.40
2023-05-10T21:35:02.217Z,17.88
2023-05-10T21:37:31.949Z,20.77
2023-05-10T21:39:59.545Z,17.35
2023-05-10T21:42:27.277Z,18.80
2023-05-10T21:44:54.942Z,18.55
2023-05-10T21:47:22.668Z,17.88
2023-05-10T21:49:50.670Z,18.00
2023-05-10T21:52:18.450Z,37.50
2023-05-10T21:54:46.152Z,22.33
2023-05-10T21:57:13.703Z,41.72
2023-05-10T21:59:41.278Z,23.33
2023-05-10T22:02:09.097Z,26.13
2023-05-10T22:04:36.690Z,16.38
2023-05-10T22:07:04.388Z,22.25
2023-05-10T22:09:32.052Z,37.88
2023-05-10T22:11:59.675Z,25.75
2023-05-10T22:14:27.177Z,22.98
2023-05-10T22:16:54.975Z,21.42
2023-05-10T22:19:22.560Z,29.15
2023-05-10T22:21:50.152Z,31.73
2023-05-10T22:24:17.776Z,26.45
2023-05-10T22:26:45.517Z,23.42
2023-05-10T22:29:13.208Z,22.08
2023-05-10T22:31:41.246Z,22.48
2023-05-10T22:34:08.973Z,25.90
2023-05-10T22:36:37.375Z,16.35
2023-05-10T22:39:05.134Z,27.92
2023-05-10T22:41:36.019Z,21.55
2023-05-10T22:44:05.136Z,22.00
2023-05-10T22:46:33.121Z,32.95
2023-05-10T22:49:00.805Z,26.38
2023-05-10T22:51:28.649Z,23.05
2023-05-10T22:53:56.227Z,25.60
2023-05-10T22:56:23.813Z,18.33
2023-05-10T22:58:51.460Z,21.80
2023-05-10T23:01:19.175Z,21.70
2023-05-10T23:03:46.673Z,26.50
2023-05-10T23:06:14.467Z,27.25
2023-05-10T23:08:41.936Z,19.30
2023-05-10T23:11:09.625Z,23.08
2023-05-10T23:13:37.237Z,33.40
2023-05-10T23:16:06.616Z,27.38
2023-05-10T23:18:34.293Z,17.42
2023-05-10T23:21:01.998Z,22.55
2023-05-10T23:23:29.653Z,26.20
2023-05-10T23:25:57.262Z,32.08
2023-05-10T23:28:24.901Z,31.25
2023-05-10T23:30:56.775Z,26.50
2023-05-10T23:33:25.216Z,37.00
2023-05-10T23:35:54.212Z,40.67
2023-05-10T23:38:21.973Z,33.95
2023-05-10T23:40:50.874Z,30.55
2023-05-10T23:43:19.863Z,26.67
2023-05-10T23:45:55.220Z,31.98
2023-05-10T23:48:23.311Z,28.98
2023-05-10T23:50:51.312Z,27.85
2023-05-10T23:53:19.109Z,36.85
2023-05-10T23:55:46.898Z,32.42
2023-05-10T23:58:14.543Z,20.88
